Time;durP1;ratioP1;P1;durP2;ratioP2;P2;SDS_P1;SDS_P2;PMS_P1;PMS_P2;Temp;Humidity;BMP_temperature;BMP_pressure;BME280_temperature;BME280_humidity;BME280_pressure;Samples;Min_cycle;Max_cycle;Signal;HPM_P1;HPM_P2
2023/10/02 00:00:32;;;;;;;4.60;2.07;;;;;;;19.52;100.00;101942.44;2074625;28;20810;-65
2023/10/02 00:01:34;;;;;;;3.77;2.13;;;;;;;19.65;100.00;101962.00;2074817;28;20424;-65
2023/10/02 00:02:43;;;;;;;5.20;2.23;;;;;;;19.64;100.00;101963.22;2075047;28;20432;-65
2023/10/02 00:03:47;;;;;;;2.57;1.57;;;;;;;19.63;100.00;101970.91;2074909;28;20396;-65
2023/10/02 00:04:49;;;;;;;3.57;1.60;;;;;;;19.24;100.00;101915.41;2074594;28;20859;-65
2023/10/02 00:05:55;;;;;;;5.30;1.90;;;;;;;19.57;100.00;101969.94;2074755;28;20416;-65
2023/10/02 00:07:07;;;;;;;3.73;1.83;;;;;;;19.53;100.00;101971.31;2066928;28;20408;-65
2023/10/02 00:08:25;;;;;;;3.97;1.90;;;;;;;19.46;100.00;101978.00;2075381;28;20411;-65
2023/10/02 00:09:25;;;;;;;3.03;1.47;;;;;;;19.43;100.00;101967.69;2067031;28;20397;-65
2023/10/02 00:10:29;;;;;;;3.00;1.70;;;;;;;19.17;100.00;101935.34;2066662;28;20445;-65
2023/10/02 00:11:45;;;;;;;4.63;1.80;;;;;;;19.41;100.00;101973.00;2066514;28;20214;-65
2023/10/02 00:12:58;;;;;;;3.90;2.17;;;;;;;18.78;100.00;101884.72;2066932;28;20409;-65
2023/10/02 00:14:18;;;;;;;3.27;1.80;;;;;;;19.37;100.00;101979.97;2074976;28;20416;-65
2023/10/02 00:15:19;;;;;;;3.00;1.80;;;;;;;19.35;100.00;101974.81;2074013;28;20459;-65
2023/10/02 00:16:19;;;;;;;2.63;1.43;;;;;;;19.34;100.00;101975.28;2074844;28;20459;-65
2023/10/02 00:17:22;;;;;;;3.23;1.83;;;;;;;19.32;100.00;101974.94;2075189;28;20193;-65
2023/10/02 00:18:23;;;;;;;3.43;1.63;;;;;;;19.29;100.00;101978.69;2066904;28;20656;-65
2023/10/02 00:19:27;;;;;;;2.43;1.60;;;;;;;19.19;100.00;101968.63;2074056;28;20882;-65
2023/10/02 00:20:27;;;;;;;5.70;1.67;;;;;;;19.21;100.00;101985.78;2074671;28;20194;-65
2023/10/02 00:21:28;;;;;;;5.50;2.10;;;;;;;19.20;100.00;101973.00;2074969;28;20438;-65
2023/10/02 00:22:43;;;;;;;4.43;2.17;;;;;;;19.20;100.00;101975.78;2074810;28;20255;-65
2023/10/02 00:23:59;;;;;;;2.80;1.60;;;;;;;19.21;100.00;101980.97;2074961;28;20272;-65
2023/10/02 00:25:07;;;;;;;3.17;1.77;;;;;;;19.11;100.00;101972.94;2073683;28;20924;-65
2023/10/02 00:26:11;;;;;;;2.53;1.73;;;;;;;19.16;100.00;101986.38;2075024;28;20985;-66
2023/10/02 00:27:11;;;;;;;2.83;1.87;;;;;;;19.14;100.00;101975.59;2069617;28;20519;-65
2023/10/02 00:28:14;;;;;;;3.90;1.70;;;;;;;19.12;100.00;101980.91;2071017;28;20871;-65
2023/10/02 00:29:17;;;;;;;5.87;1.87;;;;;;;19.09;100.00;101973.38;2074788;28;20192;-66
2023/10/02 00:30:20;;;;;;;3.97;1.90;;;;;;;19.09;100.00;101975.41;2074839;28;20802;-65
2023/10/02 00:31:35;;;;;;;4.87;1.70;;;;;;;19.08;100.00;101973.84;2074721;28;20853;-65
2023/10/02 00:32:40;;;;;;;3.30;1.40;;;;;;;19.08;100.00;101982.28;2074655;28;20414;-65
2023/10/02 00:33:41;;;;;;;5.00;1.90;;;;;;;19.04;100.00;101976.78;2072854;28;20518;-65
2023/10/02 00:34:41;;;;;;;4.20;2.07;;;;;;;18.99;100.00;101974.56;2067042;28;20515;-65
2023/10/02 00:35:51;;;;;;;3.50;2.20;;;;;;;18.88;100.00;101962.94;2074554;28;20177;-65
2023/10/02 00:36:53;;;;;;;3.47;1.90;;;;;;;18.99;100.00;101970.97;2066738;28;20210;-65
2023/10/02 00:37:54;;;;;;;5.03;1.90;;;;;;;18.92;100.00;101971.22;2067144;28;20421;-65
2023/10/02 00:38:54;;;;;;;4.63;2.03;;;;;;;18.89;100.00;101970.13;2066326;28;20421;-65
2023/10/02 00:39:54;;;;;;;3.27;1.73;;;;;;;18.81;100.00;101968.81;2072506;28;20236;-65
2023/10/02 00:40:55;;;;;;;3.90;2.10;;;;;;;18.62;100.00;101935.44;2074499;28;20193;-65
2023/10/02 00:43:33;;;;;;;3.73;1.83;;;;;;;18.77;100.00;101978.63;2074702;28;20182;-65
2023/10/02 00:46:03;;;;;;;3.37;1.87;;;;;;;18.29;100.00;101930.13;2074352;28;20428;-65
2023/10/02 00:47:05;;;;;;;3.43;1.83;;;;;;;18.63;100.00;101987.56;2074939;28;20953;-65
2023/10/02 00:48:25;;;;;;;4.60;1.87;;;;;;;18.60;100.00;101985.66;2075039;28;20436;-66
2023/10/02 00:49:35;;;;;;;5.23;2.00;;;;;;;18.55;100.00;101989.81;2066919;28;20425;-65
2023/10/02 00:50:48;;;;;;;3.70;2.13;;;;;;;18.50;100.00;101984.00;2064919;28;20421;-65
2023/10/02 00:52:00;;;;;;;3.90;1.60;;;;;;;18.17;100.00;101930.16;2065747;28;20406;-66
2023/10/02 00:53:03;;;;;;;2.70;1.60;;;;;;;18.47;100.00;101982.88;2065009;28;20401;-65
2023/10/02 00:54:23;;;;;;;4.17;1.83;;;;;;;18.43;100.00;101985.03;2073731;28;20441;-66
2023/10/02 00:55:35;;;;;;;3.83;1.77;;;;;;;18.34;100.00;101970.91;2073070;28;20466;-65
2023/10/02 00:56:35;;;;;;;2.83;1.77;;;;;;;18.32;100.00;101973.38;2073379;28;20538;-65
2023/10/02 00:57:38;;;;;;;5.77;1.50;;;;;;;18.36;100.00;101981.66;2073374;28;21011;-65
2023/10/02 00:58:38;;;;;;;4.97;1.77;;;;;;;18.34;100.00;101984.16;2073600;28;20190;-65
2023/10/02 00:59:39;;;;;;;4.73;1.63;;;;;;;18.30;100.00;101978.63;2073400;28;20467;-66
2023/10/02 01:00:47;;;;;;;4.13;1.80;;;;;;;18.30;100.00;101984.25;2073558;28;20189;-66
2023/10/02 01:01:47;;;;;;;2.87;1.60;;;;;;;18.31;100.00;101980.19;2073271;28;20225;-65
2023/10/02 01:02:51;;;;;;;2.63;1.67;;;;;;;18.29;100.00;101977.06;2073440;28;20459;-64
2023/10/02 01:04:23;;;;;;;3.20;1.80;;;;;;;18.24;100.00;101978.41;2073478;28;20201;-65
2023/10/02 01:05:31;;;;;;;3.53;2.07;;;;;;;18.27;100.00;101985.94;2065496;28;20468;-65
2023/10/02 01:06:34;;;;;;;5.47;2.13;;;;;;;18.23;100.00;101985.28;2072503;28;20819;-65
2023/10/02 01:07:35;;;;;;;3.57;1.80;;;;;;;18.24;100.00;101983.25;2072948;28;20505;-65
2023/10/02 01:08:46;;;;;;;3.03;1.60;;;;;;;18.25;100.00;101979.22;2073422;28;20682;-65
2023/10/02 01:10:07;;;;;;;2.97;1.77;;;;;;;18.22;100.00;101982.16;2073488;28;20174;-66
2023/10/02 01:11:07;;;;;;;3.97;1.60;;;;;;;18.20;100.00;101976.97;2073105;28;20466;-65
2023/10/02 01:12:10;;;;;;;3.90;1.50;;;;;;;18.16;100.00;101979.13;2073379;28;20433;-65
2023/10/02 01:13:12;;;;;;;3.10;1.60;;;;;;;18.18;100.00;101985.06;2073222;28;20227;-65
2023/10/02 01:14:14;;;;;;;2.97;1.77;;;;;;;18.15;100.00;101985.97;2068964;28;20429;-66
2023/10/02 01:15:26;;;;;;;4.17;1.50;;;;;;;18.14;100.00;101985.16;2067919;28;20448;-66
2023/10/02 01:16:27;;;;;;;3.87;1.63;;;;;;;18.16;100.00;101986.75;2073247;28;20841;-66
2023/10/02 01:17:28;;;;;;;2.60;1.50;;;;;;;18.13;100.00;101982.03;2073395;28;20495;-65
2023/10/02 01:18:30;;;;;;;5.53;1.90;;;;;;;18.08;100.00;101984.19;2073323;28;20432;-66
2023/10/02 01:19:52;;;;;;;8.97;2.23;;;;;;;17.58;100.00;101904.16;2073035;28;20432;-66
2023/10/02 01:20:56;;;;;;;4.17;1.53;;;;;;;18.07;100.00;101978.25;2073010;28;20408;-65
2023/10/02 01:21:57;;;;;;;7.33;1.63;;;;;;;18.03;100.00;101979.13;2072927;28;20435;-65
2023/10/02 01:23:11;;;;;;;3.33;1.60;;;;;;;17.96;100.00;101967.34;2072469;28;20435;-65
2023/10/02 01:24:17;;;;;;;3.30;1.80;;;;;;;18.03;100.00;101983.97;2066705;28;20257;-65
2023/10/02 01:25:23;;;;;;;2.40;1.53;;;;;;;17.98;100.00;101976.91;2072887;28;20459;-65
2023/10/02 01:26:24;;;;;;;4.20;1.70;;;;;;;17.99;100.00;101981.25;2073105;28;20401;-64
2023/10/02 01:27:40;;;;;;;3.13;1.57;;;;;;;17.91;100.00;101967.16;2073650;28;20429;-66
2023/10/02 01:28:51;;;;;;;4.60;1.80;;;;;;;17.98;100.00;101979.69;2065607;28;20719;-65
2023/10/02 01:30:14;;;;;;;4.13;1.70;;;;;;;17.98;100.00;101980.94;2073349;28;20883;-65
2023/10/02 01:31:31;;;;;;;3.97;1.60;;;;;;;17.97;100.00;101974.53;2072912;28;20444;-65
2023/10/02 01:32:31;;;;;;;3.00;1.57;;;;;;;17.80;100.00;101953.47;2072965;28;20804;-65
2023/10/02 01:33:32;;;;;;;3.67;1.80;;;;;;;17.94;100.00;101975.44;2073177;28;20474;-65
2023/10/02 01:34:39;;;;;;;2.13;1.33;;;;;;;17.36;100.00;101884.41;2072073;28;20236;-65
2023/10/02 01:35:56;;;;;;;2.20;1.27;;;;;;;17.92;100.00;101975.13;2072691;28;20165;-65
2023/10/02 01:36:57;;;;;;;2.53;1.53;;;;;;;17.93;100.00;101971.84;2073019;28;20456;-65
2023/10/02 01:37:58;;;;;;;5.33;1.70;;;;;;;17.85;100.00;101952.91;2073222;28;20520;-65
2023/10/02 01:39:15;;;;;;;2.63;1.60;;;;;;;17.92;100.00;101963.13;2073094;28;20196;-65
2023/10/02 01:40:33;;;;;;;2.77;1.40;;;;;;;17.93;100.00;101959.88;2073230;28;21176;-65
2023/10/02 01:41:34;;;;;;;4.30;1.70;;;;;;;17.61;100.00;101906.81;2073010;28;20438;-65
2023/10/02 01:42:34;;;;;;;2.83;1.27;;;;;;;17.92;100.00;101957.50;2073145;28;20416;-65
2023/10/02 01:43:43;;;;;;;2.37;1.40;;;;;;;17.89;100.00;101959.19;2072940;28;20192;-65
2023/10/02 01:44:55;;;;;;;3.67;1.60;;;;;;;17.89;100.00;101959.19;2072909;28;20161;-65
2023/10/02 01:46:00;;;;;;;2.93;1.67;;;;;;;17.87;100.00;101955.25;2072634;28;20432;-65
2023/10/02 01:47:04;;;;;;;3.47;1.70;;;;;;;17.82;100.00;101958.63;2073022;28;20405;-65
2023/10/02 01:48:08;;;;;;;3.23;1.77;;;;;;;17.82;100.00;101953.81;2073249;28;20449;-66
2023/10/02 01:49:24;;;;;;;2.57;1.50;;;;;;;17.82;100.00;101959.44;2071918;28;20816;-65
2023/10/02 01:50:24;;;;;;;7.00;1.77;;;;;;;17.50;100.00;101902.81;2065132;28;20448;-66
2023/10/02 01:51:28;;;;;;;2.60;1.47;;;;;;;17.81;100.00;101957.84;2072878;28;20480;-65
2023/10/02 01:52:31;;;;;;;2.47;1.40;;;;;;;17.77;100.00;101960.75;2072745;28;20216;-66
2023/10/02 01:53:32;;;;;;;5.17;1.27;;;;;;;17.77;100.00;101953.59;2073083;28;20915;-65
2023/10/02 01:54:32;;;;;;;5.33;1.80;;;;;;;17.76;100.00;101947.19;2072686;28;20751;-65
2023/10/02 01:55:35;;;;;;;2.83;1.67;;;;;;;17.77;100.00;101945.19;2072430;28;20655;-65
2023/10/02 01:56:35;;;;;;;3.43;1.67;;;;;;;17.76;100.00;101949.22;2072969;28;20298;-65
2023/10/02 01:57:36;;;;;;;2.07;1.30;;;;;;;17.74;100.00;101944.06;2073151;28;20478;-65
2023/10/02 01:58:41;;;;;;;4.53;1.40;;;;;;;17.76;100.00;101952.78;2072867;28;20960;-65
2023/10/02 01:59:45;;;;;;;4.20;1.83;;;;;;;17.50;100.00;101903.59;2072863;28;20185;-65
2023/10/02 02:00:46;;;;;;;3.50;1.50;;;;;;;17.78;100.00;101947.53;2073225;28;20479;-65
2023/10/02 02:01:57;;;;;;;6.00;1.70;;;;;;;17.78;100.00;101944.75;2072791;28;20500;-65
2023/10/02 02:03:14;;;;;;;2.93;1.67;;;;;;;17.75;100.00;101950.47;2064363;28;20556;-65
2023/10/02 02:04:15;;;;;;;1.83;1.30;;;;;;;17.71;100.00;101944.94;2064911;28;20435;-65
2023/10/02 02:05:16;;;;;;;3.43;2.00;;;;;;;17.73;100.00;101945.31;2072481;28;20529;-65
2023/10/02 02:06:22;;;;;;;2.63;1.60;;;;;;;17.48;100.00;101917.28;2073172;28;20448;-65
2023/10/02 02:07:22;;;;;;;3.23;1.53;;;;;;;17.76;100.00;101947.19;2072869;28;20181;-65
2023/10/02 02:08:23;;;;;;;2.97;1.33;;;;;;;17.76;100.00;101950.00;2072958;28;21007;-66
2023/10/02 02:09:32;;;;;;;4.10;1.93;;;;;;;17.82;100.00;101953.03;2072294;28;20256;-65
2023/10/02 02:10:32;;;;;;;3.60;1.73;;;;;;;17.83;100.00;101952.59;2072355;28;20225;-65
2023/10/02 02:11:34;;;;;;;2.07;1.40;;;;;;;17.83;100.00;101955.38;2072199;28;20443;-65
2023/10/02 02:12:44;;;;;;;3.00;1.33;;;;;;;17.81;100.00;101943.81;2071781;28;20274;-65
2023/10/02 02:13:53;;;;;;;2.50;1.30;;;;;;;17.82;100.00;101944.63;2072853;28;20491;-65
2023/10/02 02:14:56;;;;;;;3.70;1.43;;;;;;;17.85;100.00;101949.34;2072453;28;20417;-65
2023/10/02 02:16:07;;;;;;;3.77;1.53;;;;;;;17.80;100.00;101939.44;2072624;28;20545;-65
2023/10/02 02:17:10;;;;;;;3.07;1.50;;;;;;;17.82;100.00;101953.03;2072338;28;20409;-65
2023/10/02 02:18:10;;;;;;;2.73;1.40;;;;;;;17.81;100.00;101951.47;2072968;28;20934;-65
2023/10/02 02:19:12;;;;;;;2.37;1.33;;;;;;;17.81;100.00;101952.22;2072682;28;20903;-65
2023/10/02 02:20:43;;;;;;;2.03;1.23;;;;;;;17.83;100.00;101946.97;2073055;28;20286;-65
2023/10/02 02:21:33;;;;;;;3.53;1.30;;;;;;;17.83;100.00;101946.19;2065470;28;20965;-65
2023/10/02 02:22:36;;;;;;;2.70;1.30;;;;;;;17.86;100.00;101954.47;2072725;28;20443;-65
2023/10/02 02:23:37;;;;;;;3.63;1.70;;;;;;;17.84;100.00;101951.34;2064940;28;20436;-64
2023/10/02 02:24:38;;;;;;;2.30;1.50;;;;;;;17.82;100.00;101958.63;2071383;28;20902;-65
2023/10/02 02:25:38;;;;;;;3.43;1.57;;;;;;;17.82;100.00;101953.81;2072277;28;20254;-65
2023/10/02 02:26:39;;;;;;;2.83;1.30;;;;;;;17.83;100.00;101972.22;2072808;28;20204;-65
2023/10/02 02:27:45;;;;;;;3.50;1.60;;;;;;;17.84;100.00;101965.38;2069242;28;20183;-65
2023/10/02 02:28:51;;;;;;;1.63;1.23;;;;;;;17.87;100.00;101961.66;2067815;28;20198;-65
2023/10/02 02:29:56;;;;;;;2.20;1.30;;;;;;;17.86;100.00;101964.91;2080468;28;20455;-65
2023/10/02 02:30:56;;;;;;;2.40;1.40;;;;;;;17.91;100.00;101955.94;2079089;28;20416;-65
2023/10/02 02:31:57;;;;;;;4.07;1.77;;;;;;;17.57;100.00;101913.78;2071939;28;21045;-65
2023/10/02 02:33:00;;;;;;;3.23;1.50;;;;;;;17.90;100.00;101962.78;2071711;28;20174;-65
2023/10/02 02:34:08;;;;;;;3.80;1.67;;;;;;;17.90;100.00;101965.59;2064698;28;20217;-65
2023/10/02 02:35:13;;;;;;;3.33;1.20;;;;;;;17.92;100.00;101968.72;2063906;28;20518;-65
2023/10/02 02:36:14;;;;;;;2.30;1.30;;;;;;;17.88;100.00;101951.22;2072717;28;20740;-65
2023/10/02 02:37:16;;;;;;;2.60;1.23;;;;;;;17.92;100.00;101963.91;2072694;28;20432;-65
2023/10/02 02:38:17;;;;;;;3.97;1.63;;;;;;;17.97;100.00;101966.13;2072747;28;20216;-65
2023/10/02 02:39:22;;;;;;;2.33;1.37;;;;;;;17.95;100.00;101963.00;2072617;28;20611;-65
2023/10/02 02:40:22;;;;;;;4.50;1.53;;;;;;;17.90;100.00;101971.97;2072521;28;20584;-65
2023/10/02 02:41:23;;;;;;;3.17;1.43;;;;;;;17.98;100.00;101959.28;2072743;28;20439;-65
2023/10/02 02:42:24;;;;;;;6.03;1.77;;;;;;;18.01;100.00;101958.38;2072646;28;20260;-65
2023/10/02 02:43:25;;;;;;;2.33;1.30;;;;;;;18.03;100.00;101958.72;2072432;28;20192;-65
2023/10/02 02:44:40;;;;;;;4.30;1.63;;;;;;;17.99;100.00;101969.28;2072053;28;20190;-65
2023/10/02 02:45:41;;;;;;;3.23;1.60;;;;;;;17.88;100.00;101954.03;2064790;28;20526;-65
2023/10/02 02:46:53;;;;;;;2.97;1.50;;;;;;;17.92;100.00;101964.69;2072866;28;20502;-65
2023/10/02 02:48:03;;;;;;;4.43;1.40;;;;;;;17.88;100.00;101957.63;2064700;28;20155;-65
2023/10/02 02:49:04;;;;;;;2.90;1.40;;;;;;;17.90;100.00;101960.00;2072617;28;20437;-65
2023/10/02 02:50:07;;;;;;;2.47;1.30;;;;;;;17.89;100.00;101967.59;2072836;28;20435;-65
2023/10/02 02:51:15;;;;;;;2.93;1.53;;;;;;;17.93;100.00;101966.25;2072498;28;20197;-65
2023/10/02 02:52:24;;;;;;;5.87;1.60;;;;;;;17.94;100.00;101970.59;2072696;28;20542;-65
2023/10/02 02:53:30;;;;;;;3.07;1.40;;;;;;;17.67;100.00;101919.06;2072495;28;20495;-65
2023/10/02 02:54:30;;;;;;;3.47;1.60;;;;;;;18.00;100.00;101973.66;2072241;28;20471;-65
2023/10/02 02:55:31;;;;;;;3.33;1.17;;;;;;;18.02;100.00;101963.53;2071935;28;20460;-65
2023/10/02 02:56:34;;;;;;;2.60;1.47;;;;;;;17.81;100.00;101932.59;2072451;28;20681;-65
2023/10/02 02:57:38;;;;;;;3.77;1.37;;;;;;;18.06;100.00;101968.25;2072670;28;20215;-65
2023/10/02 02:58:38;;;;;;;3.27;1.83;;;;;;;18.01;100.00;101961.19;2068720;28;20445;-65
2023/10/02 02:59:39;;;;;;;6.77;1.70;;;;;;;18.06;100.00;101965.47;2066448;28;20419;-65
2023/10/02 03:00:39;;;;;;;3.07;1.40;;;;;;;18.06;100.00;101968.25;2071779;28;20190;-65
2023/10/02 03:01:40;;;;;;;2.20;1.30;;;;;;;18.05;100.00;101959.06;2064515;28;20178;-65
2023/10/02 03:02:44;;;;;;;2.13;1.30;;;;;;;18.03;100.00;101956.69;2072498;28;20277;-65
2023/10/02 03:03:44;;;;;;;4.83;1.60;;;;;;;17.94;100.00;101944.59;2072317;28;20443;-65
2023/10/02 03:04:45;;;;;;;4.37;1.20;;;;;;;18.06;100.00;101959.84;2072187;28;20938;-65
2023/10/02 03:05:47;;;;;;;3.93;2.13;;;;;;;18.02;100.00;101963.53;2067058;28;20236;-65
2023/10/02 03:07:07;;;;;;;2.43;1.43;;;;;;;17.99;100.00;101958.06;2068495;28;20674;-65
2023/10/02 03:08:08;;;;;;;4.03;1.80;;;;;;;17.96;100.00;101960.97;2072542;28;20573;-65
2023/10/02 03:09:09;;;;;;;2.77;1.47;;;;;;;17.92;100.00;101964.69;2072468;28;20455;-65
2023/10/02 03:10:11;;;;;;;3.90;1.20;;;;;;;17.94;100.00;101967.81;2069140;28;20950;-65
2023/10/02 03:11:15;;;;;;;3.33;1.30;;;;;;;17.98;100.00;101970.50;2066734;28;20682;-65
2023/10/02 03:12:16;;;;;;;3.63;1.60;;;;;;;17.70;100.00;101920.19;2072159;28;20431;-65
2023/10/02 03:13:17;;;;;;;5.17;1.20;;;;;;;17.96;100.00;101967.34;2071690;28;20420;-65
2023/10/02 03:14:19;;;;;;;4.53;2.00;;;;;;;17.92;100.00;101957.50;2072117;28;20432;-65
2023/10/02 03:15:45;;;;;;;3.33;1.63;;;;;;;17.98;100.00;101959.28;2072377;28;20458;-65
2023/10/02 03:16:45;;;;;;;4.00;1.37;;;;;;;17.91;100.00;101962.31;2064985;28;20543;-65
2023/10/02 03:17:51;;;;;;;4.03;1.40;;;;;;;17.69;100.00;101953.03;2072683;28;20519;-65
2023/10/02 03:18:54;;;;;;;4.83;1.20;;;;;;;17.80;100.00;101947.88;2064403;28;20432;-66
2023/10/02 03:19:58;;;;;;;3.77;1.20;;;;;;;17.81;100.00;101957.06;2072333;28;20427;-65
2023/10/02 03:21:14;;;;;;;2.23;1.33;;;;;;;17.77;100.00;101966.38;2072473;28;20461;-65
2023/10/02 03:22:17;;;;;;;2.17;1.40;;;;;;;17.80;100.00;101966.72;2064782;28;20421;-65
2023/10/02 03:23:18;;;;;;;4.73;1.67;;;;;;;17.78;100.00;101972.78;2071546;28;20441;-65
2023/10/02 03:24:19;;;;;;;2.13;1.20;;;;;;;17.75;100.00;101968.06;2065847;28;20429;-65
2023/10/02 03:25:40;;;;;;;4.20;1.60;;;;;;;17.72;100.00;101968.97;2068985;28;20448;-65
2023/10/02 03:26:43;;;;;;;2.83;1.70;;;;;;;17.68;100.00;101969.06;2071773;28;20180;-65
2023/10/02 03:27:44;;;;;;;2.23;1.20;;;;;;;17.72;100.00;101974.59;2072444;28;20450;-65
2023/10/02 03:28:44;;;;;;;3.47;1.57;;;;;;;17.70;100.00;101963.00;2072493;28;20417;-65
2023/10/02 03:29:45;;;;;;;2.43;1.40;;;;;;;17.68;100.00;101976.72;2072380;28;20236;-65
2023/10/02 03:30:48;;;;;;;3.37;1.50;;;;;;;17.67;100.00;101977.16;2072410;28;20193;-66
2023/10/02 03:31:52;;;;;;;4.17;1.47;;;;;;;17.72;100.00;101976.59;2072196;28;20182;-65
2023/10/02 03:32:52;;;;;;;2.87;1.50;;;;;;;17.64;100.00;101976.03;2070981;28;20917;-65
2023/10/02 03:33:53;;;;;;;2.97;1.57;;;;;;;17.65;100.00;101985.22;2063849;28;20923;-65
2023/10/02 03:35:02;;;;;;;3.03;1.53;;;;;;;17.60;100.00;101978.16;2072081;28;20583;-65
2023/10/02 03:36:10;;;;;;;6.07;2.10;;;;;;;17.58;100.00;101982.63;2064594;28;20410;-65
2023/10/02 03:38:14;;;;;;;1.70;0.90;;;;;;;17.60;100.00;101986.56;2071419;28;20993;-65
2023/10/02 03:39:23;;;;;;;4.07;1.27;;;;;;;17.09;100.00;101910.06;2072533;28;20256;-65
2023/10/02 03:40:25;;;;;;;3.73;1.50;;;;;;;17.60;100.00;101986.56;2071820;28;20459;-65
2023/10/02 03:41:44;;;;;;;3.33;1.30;;;;;;;17.61;100.00;101992.97;2072389;28;20442;-65
2023/10/02 03:42:47;;;;;;;3.23;1.43;;;;;;;17.61;100.00;101981.75;2072512;28;20477;-65
2023/10/02 03:43:48;;;;;;;4.73;1.67;;;;;;;17.61;100.00;101985.31;2072106;28;20490;-65
2023/10/02 03:44:50;;;;;;;2.47;1.23;;;;;;;17.60;100.00;101989.34;2072001;28;20455;-66
2023/10/02 03:45:51;;;;;;;2.93;1.50;;;;;;;17.53;100.00;101990.34;2071863;28;20435;-65
2023/10/02 03:46:53;;;;;;;6.40;1.87;;;;;;;17.50;100.00;101992.50;2072224;28;20497;-65
2023/10/02 03:48:02;;;;;;;3.67;1.30;;;;;;;17.58;100.00;101991.84;2072370;28;20924;-65
2023/10/02 03:49:04;;;;;;;3.87;1.63;;;;;;;17.55;100.00;102001.13;2079577;28;20483;-65
2023/10/02 03:50:11;;;;;;;2.77;1.53;;;;;;;17.55;100.00;102000.38;2079806;28;20415;-65
2023/10/02 03:51:12;;;;;;;2.87;1.57;;;;;;;17.51;100.00;101992.03;2072310;28;20436;-65
2023/10/02 03:52:14;;;;;;;2.73;1.20;;;;;;;17.53;100.00;101998.00;2072363;28;20428;-65
2023/10/02 03:53:28;;;;;;;1.67;1.13;;;;;;;17.49;100.00;102004.97;2064331;28;20209;-65
2023/10/02 03:54:29;;;;;;;2.83;1.53;;;;;;;17.52;100.00;102002.03;2071735;28;20496;-64
2023/10/02 03:55:33;;;;;;;2.17;1.30;;;;;;;17.40;100.00;101985.97;2061772;28;20447;-63
2023/10/02 03:56:36;;;;;;;3.63;1.30;;;;;;;18.04;100.00;102007.97;2069456;28;20226;-61
2023/10/02 03:57:50;;;;;;;2.37;1.73;;;;;;;18.39;100.00;102015.25;2065337;28;20437;-62
2023/10/02 03:58:52;;;;;;;3.67;1.90;;;;;;;18.92;100.00;102028.22;2070692;28;20457;-63
2023/10/02 03:59:53;;;;;;;1.97;1.40;;;;;;;19.21;100.00;102019.50;2071968;28;20443;-62
2023/10/02 04:00:54;;;;;;;2.37;1.60;;;;;;;19.39;100.00;102033.72;2069642;28;20468;-61
2023/10/02 04:01:57;;;;;;;2.70;1.87;;;;;;;19.55;100.00;102028.66;2071787;28;20194;-59
2023/10/02 04:02:59;;;;;;;5.97;2.03;;;;;;;19.80;100.00;102036.16;2066693;28;20252;-63
2023/10/02 04:05:32;;;;;;;3.93;2.07;;;;;;;20.35;100.00;102032.28;2066820;28;20802;-64
2023/10/02 04:06:35;;;;;;;3.60;1.70;;;;;;;20.48;100.00;102028.09;2066734;28;20516;-62
2023/10/02 04:07:36;;;;;;;2.57;1.70;;;;;;;20.57;100.00;102024.50;2068377;28;20452;-63
2023/10/02 04:08:37;;;;;;;3.70;1.60;;;;;;;20.63;100.00;102023.41;2065844;28;20520;-61
2023/10/02 04:09:38;;;;;;;2.70;1.50;;;;;;;20.40;100.00;101973.31;2071753;28;20257;-61
2023/10/02 04:10:51;;;;;;;3.30;1.60;;;;;;;20.92;100.00;102020.16;2067950;28;20433;-62
2023/10/02 04:11:55;;;;;;;2.83;1.60;;;;;;;21.16;100.00;102026.72;2071584;28;20687;-61
2023/10/02 04:12:57;;;;;;;4.80;2.03;;;;;;;21.16;100.00;102023.91;2071682;28;20562;-62
2023/10/02 04:13:59;;;;;;;2.60;1.40;;;;;;;21.15;100.00;102017.50;2063815;28;20422;-61
2023/10/02 04:15:04;;;;;;;2.63;1.50;;;;;;;21.12;100.00;102017.63;2062500;28;20193;-65
2023/10/02 04:17:25;;;;;;;2.63;1.70;;;;;;;21.18;100.00;102027.03;2064239;28;20170;-65
2023/10/02 04:19:52;;;;;;;3.37;1.77;;;;;;;21.34;100.00;102021.06;2063761;28;20397;-65
2023/10/02 04:21:01;;;;;;;2.47;1.57;;;;;;;21.36;100.00;102024.16;2063811;28;20799;-65
2023/10/02 04:22:06;;;;;;;3.83;1.80;;;;;;;21.13;100.00;101993.84;2070367;28;20817;-65
2023/10/02 04:23:21;;;;;;;3.33;1.57;;;;;;;21.35;100.00;102016.97;2071921;28;20189;-65
2023/10/02 04:24:23;;;;;;;2.87;1.13;;;;;;;21.41;100.00;102024.31;2063218;28;20536;-66
2023/10/02 04:25:25;;;;;;;2.23;1.53;;;;;;;21.39;100.00;102026.06;2069755;28;20922;-67
2023/10/02 04:26:28;;;;;;;4.33;1.83;;;;;;;21.41;100.00;102020.72;2071668;28;20578;-66
2023/10/02 04:28:16;;;;;;;3.03;1.77;;;;;;;21.37;100.00;102015.25;2073001;28;20586;-67
2023/10/02 04:28:59;;;;;;;2.37;1.50;;;;;;;21.39;100.00;102020.41;2075462;28;20217;-66
2023/10/02 04:30:24;;;;;;;2.30;1.53;;;;;;;21.39;100.00;102023.25;2065184;28;20245;-66
2023/10/02 04:31:22;;;;;;;5.33;1.67;;;;;;;21.05;100.00;101967.22;2069677;28;20653;-65
2023/10/02 04:32:24;;;;;;;2.97;1.60;;;;;;;21.41;100.00;102024.31;2072951;28;20269;-64
2023/10/02 04:33:25;;;;;;;2.87;1.70;;;;;;;21.36;100.00;102018.53;2073105;28;20182;-62
2023/10/02 04:34:29;;;;;;;4.10;2.00;;;;;;;21.31;100.00;102022.00;2072219;28;20435;-62
2023/10/02 04:35:45;;;;;;;2.63;1.43;;;;;;;21.14;100.00;102006.69;2071561;28;20640;-62
2023/10/02 04:36:45;;;;;;;7.30;2.10;;;;;;;21.08;100.00;102020.59;2067623;28;20965;-62
2023/10/02 04:37:48;;;;;;;4.07;1.97;;;;;;;20.99;100.00;102031.88;2070574;28;20871;-62
2023/10/02 04:38:49;;;;;;;3.13;1.63;;;;;;;20.89;100.00;102027.53;2069279;28;20206;-62
2023/10/02 04:39:54;;;;;;;3.63;2.20;;;;;;;20.80;100.00;102033.13;2071328;28;20473;-62
2023/10/02 04:40:55;;;;;;;3.60;1.87;;;;;;;20.69;100.00;102030.00;2068404;28;20501;-62
2023/10/02 04:42:12;;;;;;;4.23;1.60;;;;;;;20.59;100.00;102030.44;2065725;28;20653;-62
2023/10/02 04:43:28;;;;;;;3.80;2.13;;;;;;;20.47;100.00;102039.81;2071196;28;20181;-62
2023/10/02 04:44:43;;;;;;;3.30;1.63;;;;;;;20.35;100.00;102041.50;2064502;28;20456;-62
2023/10/02 04:45:44;;;;;;;3.77;1.60;;;;;;;20.13;100.00;102023.94;2062689;28;20435;-62
2023/10/02 04:46:46;;;;;;;2.03;1.50;;;;;;;20.16;100.00;102053.97;2067212;28;20495;-63
2023/10/02 04:47:49;;;;;;;4.67;1.67;;;;;;;20.07;100.00;102048.28;2067741;28;20735;-62
2023/10/02 04:48:54;;;;;;;5.57;1.70;;;;;;;19.79;100.00;102017.66;2064588;28;20492;-62
2023/10/02 04:51:11;;;;;;;2.83;1.53;;;;;;;19.70;100.00;102032.47;2065708;28;20178;-62
2023/10/02 04:52:14;;;;;;;2.77;1.70;;;;;;;19.76;100.00;102050.31;2062136;28;20849;-62
2023/10/02 04:53:22;;;;;;;4.20;1.60;;;;;;;19.57;100.00;102031.81;2063786;28;20443;-62
2023/10/02 04:54:23;;;;;;;3.97;2.50;;;;;;;19.51;100.00;102030.03;2065229;28;20807;-62
2023/10/02 04:55:31;;;;;;;3.93;2.13;;;;;;;19.51;100.00;102044.91;2063358;28;20463;-60
2023/10/02 04:56:32;;;;;;;6.10;1.90;;;;;;;19.28;100.00;102019.28;2048319;28;20932;-61
2023/10/02 04:57:35;;;;;;;5.87;2.13;;;;;;;19.41;100.00;102051.72;2050316;28;20503;-61
2023/10/02 04:58:39;;;;;;;3.07;1.53;;;;;;;19.37;100.00;102055.88;2060055;28;20452;-61
2023/10/02 04:59:54;;;;;;;3.17;1.60;;;;;;;19.30;100.00;102054.13;2055292;28;20658;-61
2023/10/02 05:02:21;;;;;;;2.70;1.47;;;;;;;18.53;100.00;101955.03;2036693;28;20466;-61
2023/10/02 05:03:25;;;;;;;4.83;1.93;;;;;;;19.05;100.00;102062.66;2062343;28;20415;-61
2023/10/02 05:04:31;;;;;;;4.30;1.83;;;;;;;19.01;100.00;102059.19;2062336;28;20435;-61
2023/10/02 05:05:42;;;;;;;6.07;2.40;;;;;;;18.67;100.00;102014.25;2063949;28;20691;-61
2023/10/02 05:06:52;;;;;;;2.37;1.53;;;;;;;18.91;100.00;102067.97;2070411;28;20415;-61
2023/10/02 05:07:52;;;;;;;3.03;1.37;;;;;;;18.44;100.00;102006.25;2064988;28;20944;-61
2023/10/02 05:09:56;;;;;;;3.97;1.80;;;;;;;18.82;100.00;102068.69;2059845;28;20841;-61
2023/10/02 05:11:23;;;;;;;2.37;1.40;;;;;;;18.78;100.00;102068.03;2065594;28;20219;-61
2023/10/02 05:12:28;;;;;;;4.80;1.70;;;;;;;18.71;100.00;102071.09;2060836;28;20436;-61